Trim Flying Club goes to the Aran Islands

Learn to fly at Trim Flying Club

Rainfall Radar Now

Atlantic Charts Pressure - Today

Atlantic Charts Rainfall - Today

 
 

Atlantic Charts Pressure - Tomorrow

Sunrise Sunset

Click for Dublin, Ireland Forecast

Aviation WX Dublin EIDW

[source: ADDS]
METAR
EIDW 311000Z 27011KT 9999 FEW015 16/11 Q1018 NOSIG =
TAF
TAF EIDW 310500Z 3106/0106 25007KT 9999 FEW018 SCT030 BECMG 3110/3112 20008KT BECMG 3118/3121 24008KT TEMPO 3118/3123 5000 -RADZ BKN010 PROB30 TEMPO 3118/3123 3000 RADZ BKN007 BECMG 3122/3124 29010KT =